Time;durP1;ratioP1;P1;durP2;ratioP2;P2;SDS_P1;SDS_P2;PMS_P1;PMS_P2;Temp;Humidity;BMP_temperature;BMP_pressure;BME280_temperature;BME280_humidity;BME280_pressure;Samples;Min_cycle;Max_cycle;Signal;HPM_P1;HPM_P2
2022/07/19 00:00:03;;;;;;;14.18;3.67;;;23.40;99.90;;;;;;5034334;28;20628;-43
2022/07/19 00:02:29;;;;;;;26.30;3.50;;;23.20;99.90;;;;;;5033790;28;20218;-45
2022/07/19 00:04:55;;;;;;;18.45;4.38;;;23.00;99.90;;;;;;5034261;28;20177;-43
2022/07/19 00:07:20;;;;;;;32.10;4.40;;;23.00;99.90;;;;;;5034075;28;20294;-43
2022/07/19 00:09:46;;;;;;;26.50;3.97;;;23.20;99.90;;;;;;5034223;28;20175;-45
2022/07/19 00:12:13;;;;;;;22.85;4.22;;;23.20;99.90;;;;;;5034374;28;20175;-45
2022/07/19 00:14:39;;;;;;;19.58;4.03;;;23.30;99.90;;;;;;5034082;28;20167;-46
2022/07/19 00:17:05;;;;;;;18.20;3.65;;;23.30;99.90;;;;;;5034203;28;20652;-43
2022/07/19 00:19:31;;;;;;;16.48;3.97;;;23.30;99.90;;;;;;5033941;28;20205;-45
2022/07/19 00:21:56;;;;;;;12.10;4.18;;;23.30;99.90;;;;;;5033825;28;20199;-43
2022/07/19 00:24:22;;;;;;;16.73;3.50;;;23.40;99.90;;;;;;5033849;28;20229;-43
2022/07/19 00:26:47;;;;;;;28.02;4.25;;;23.40;99.90;;;;;;5034139;28;20188;-43
2022/07/19 00:29:13;;;;;;;21.95;4.53;;;23.30;99.90;;;;;;5034118;28;20172;-44
2022/07/19 00:31:39;;;;;;;12.85;2.97;;;23.20;99.90;;;;;;5033755;28;20198;-43
2022/07/19 00:34:04;;;;;;;21.50;3.78;;;23.20;99.90;;;;;;5033909;28;20175;-45
2022/07/19 00:36:30;;;;;;;25.20;4.03;;;23.00;99.90;;;;;;5033626;28;20173;-43
2022/07/19 00:38:55;;;;;;;16.25;2.90;;;23.00;99.90;;;;;;5033630;28;20167;-43
2022/07/19 00:41:21;;;;;;;6.57;2.60;;;22.90;99.90;;;;;;5033468;28;20159;-42
2022/07/19 00:43:47;;;;;;;6.22;2.40;;;22.80;99.90;;;;;;5033451;28;20175;-45
2022/07/19 00:46:19;;;;;;;9.88;3.10;;;22.70;99.90;;;;;;5033396;28;20174;-43
2022/07/19 00:48:45;;;;;;;10.10;3.65;;;22.60;99.90;;;;;;5033362;28;20255;-43
2022/07/19 00:51:13;;;;;;;9.38;3.22;;;22.00;99.90;;;;;;5033574;28;20684;-46
2022/07/19 00:53:40;;;;;;;9.90;2.78;;;22.60;99.90;;;;;;5033299;28;20167;-44
2022/07/19 00:56:07;;;;;;;6.50;2.65;;;22.60;99.90;;;;;;5033336;28;20180;-49
2022/07/19 00:58:34;;;;;;;9.38;2.80;;;22.60;99.90;;;;;;5033052;28;20186;-45
2022/07/19 01:01:01;;;;;;;10.07;3.55;;;22.60;99.90;;;;;;5033148;28;20398;-44
2022/07/19 01:03:27;;;;;;;16.75;3.20;;;22.50;99.90;;;;;;5033066;28;20207;-45
2022/07/19 01:05:52;;;;;;;12.07;3.17;;;22.60;99.90;;;;;;5032907;28;20218;-43
2022/07/19 01:08:18;;;;;;;8.82;3.17;;;22.50;99.90;;;;;;5033278;28;20179;-46
2022/07/19 01:10:44;;;;;;;14.95;4.13;;;22.50;99.90;;;;;;5033244;28;20186;-43
2022/07/19 01:13:13;;;;;;;15.60;3.50;;;22.40;99.90;;;;;;5032920;28;20223;-44
2022/07/19 01:15:40;;;;;;;12.90;3.47;;;22.50;99.90;;;;;;5032880;28;20167;-44
2022/07/19 01:18:06;;;;;;;13.02;3.10;;;22.40;99.90;;;;;;5032764;28;20572;-50
2022/07/19 01:20:32;;;;;;;10.35;3.20;;;22.20;99.90;;;;;;5032789;28;20221;-52
2022/07/19 01:22:58;;;;;;;12.20;3.40;;;22.20;99.90;;;;;;5032648;28;20567;-46
2022/07/19 01:25:25;;;;;;;8.55;2.90;;;22.10;99.90;;;;;;5032723;28;20176;-50
2022/07/19 01:27:51;;;;;;;11.00;2.78;;;22.20;99.90;;;;;;5032655;28;20250;-46
2022/07/19 01:30:24;;;;;;;10.38;3.38;;;22.20;99.90;;;;;;5032578;28;20202;-48
2022/07/19 01:32:51;;;;;;;10.02;3.00;;;22.30;99.90;;;;;;5032878;28;20202;-45
2022/07/19 01:35:18;;;;;;;5.32;2.60;;;22.30;99.90;;;;;;5032509;28;20164;-52
2022/07/19 01:37:44;;;;;;;8.82;3.15;;;22.30;99.90;;;;;;5032780;28;20516;-46
2022/07/19 01:40:13;;;;;;;8.40;3.28;;;22.20;99.90;;;;;;5032376;28;20182;-44
2022/07/19 01:42:39;;;;;;;4.70;2.85;;;22.20;99.90;;;;;;5032242;28;20199;-46
2022/07/19 01:45:08;;;;;;;11.02;3.03;;;22.10;99.90;;;;;;5032620;28;20171;-48
2022/07/19 01:47:34;;;;;;;9.45;3.13;;;22.20;99.90;;;;;;5032235;28;20632;-48
2022/07/19 01:50:00;;;;;;;5.55;2.65;;;22.10;99.90;;;;;;5032304;28;20696;-46
2022/07/19 01:52:26;;;;;;;10.40;3.20;;;22.10;99.90;;;;;;5032273;28;20163;-46
2022/07/19 01:54:51;;;;;;;13.65;3.00;;;22.10;99.90;;;;;;5032255;28;20186;-48
2022/07/19 01:57:17;;;;;;;10.90;3.83;;;22.10;99.90;;;;;;5032204;28;20163;-50
2022/07/19 01:59:43;;;;;;;3.63;2.50;;;22.10;99.90;;;;;;5032500;28;20167;-48
2022/07/19 02:02:08;;;;;;;8.82;2.78;;;22.00;99.90;;;;;;5032028;28;20289;-48
2022/07/19 02:04:34;;;;;;;9.52;2.70;;;21.90;99.90;;;;;;5032116;28;20661;-47
2022/07/19 02:06:59;;;;;;;7.38;2.88;;;22.00;99.90;;;;;;5031957;28;20249;-48
2022/07/19 02:09:25;;;;;;;6.10;3.53;;;21.90;99.90;;;;;;5031471;28;20643;-49
2022/07/19 02:11:51;;;;;;;5.60;3.10;;;21.80;99.90;;;;;;5032043;28;20170;-49
2022/07/19 02:14:17;;;;;;;7.72;3.28;;;21.80;99.90;;;;;;5031951;28;20182;-47
2022/07/19 02:16:43;;;;;;;4.78;3.13;;;21.80;99.90;;;;;;5032283;28;20202;-45
2022/07/19 02:19:09;;;;;;;8.50;2.60;;;21.80;99.90;;;;;;5032105;28;20183;-43
2022/07/19 02:21:36;;;;;;;9.80;3.08;;;21.80;99.90;;;;;;5031787;28;20178;-44
2022/07/19 02:24:04;;;;;;;8.85;3.72;;;21.80;99.90;;;;;;5031902;28;20656;-46
2022/07/19 02:26:29;;;;;;;8.23;2.85;;;21.60;99.90;;;;;;5031793;28;20164;-44
2022/07/19 02:28:55;;;;;;;7.63;3.30;;;21.50;99.90;;;;;;5031851;28;20174;-48
2022/07/19 02:31:21;;;;;;;7.65;2.97;;;21.60;99.90;;;;;;5031802;28;20163;-46
2022/07/19 02:33:46;;;;;;;7.65;3.33;;;21.50;99.90;;;;;;5031787;28;20166;-43
2022/07/19 02:36:12;;;;;;;11.77;3.75;;;21.50;99.90;;;;;;5032126;28;20246;-43
2022/07/19 02:38:37;;;;;;;10.90;3.83;;;21.50;99.90;;;;;;5031690;28;20197;-45
2022/07/19 02:41:03;;;;;;;7.32;3.78;;;21.40;99.90;;;;;;5031670;28;20179;-43
2022/07/19 02:43:29;;;;;;;8.52;3.70;;;21.50;99.90;;;;;;5031849;28;20207;-44
2022/07/19 02:45:54;;;;;;;14.70;3.97;;;21.40;99.90;;;;;;5031679;28;20166;-43
2022/07/19 02:48:20;;;;;;;8.65;3.72;;;21.30;99.90;;;;;;5031777;28;20520;-43
2022/07/19 02:50:46;;;;;;;11.77;4.15;;;21.30;99.90;;;;;;5031682;28;20174;-45
2022/07/19 02:53:11;;;;;;;9.07;4.53;;;21.20;99.90;;;;;;5031864;28;20578;-45
2022/07/19 02:55:37;;;;;;;16.05;4.35;;;21.30;99.90;;;;;;5031808;28;20195;-43
2022/07/19 02:58:03;;;;;;;7.57;3.40;;;21.10;99.90;;;;;;5031538;28;20167;-44
2022/07/19 03:00:29;;;;;;;10.20;3.90;;;21.20;99.90;;;;;;5031611;28;20174;-46
2022/07/19 03:02:54;;;;;;;6.32;3.42;;;21.10;99.90;;;;;;5031404;28;20306;-43
2022/07/19 03:05:20;;;;;;;7.57;3.83;;;21.10;99.90;;;;;;5031410;28;20167;-43
2022/07/19 03:07:46;;;;;;;8.10;3.95;;;21.10;99.90;;;;;;5031272;28;20238;-42
2022/07/19 03:10:11;;;;;;;7.68;3.63;;;21.10;99.90;;;;;;5031701;28;20529;-43
2022/07/19 03:12:37;;;;;;;9.73;3.58;;;21.10;99.90;;;;;;5030933;28;20228;-47
2022/07/19 03:15:03;;;;;;;11.98;3.35;;;21.10;99.90;;;;;;5031599;28;20168;-48
2022/07/19 03:17:29;;;;;;;8.20;3.85;;;21.00;99.90;;;;;;5031350;28;20172;-45
2022/07/19 03:19:54;;;;;;;8.13;3.33;;;20.90;99.90;;;;;;5031505;28;20171;-45
2022/07/19 03:22:20;;;;;;;8.23;3.30;;;21.00;99.90;;;;;;5034446;28;20199;-45
2022/07/19 03:24:45;;;;;;;7.35;3.78;;;21.00;99.90;;;;;;5034849;28;20263;-42
2022/07/19 03:27:11;;;;;;;9.23;3.47;;;21.10;99.90;;;;;;5035216;28;20175;-45
2022/07/19 03:29:36;;;;;;;6.15;3.25;;;21.20;99.90;;;;;;5034805;28;20250;-43
2022/07/19 03:32:02;;;;;;;7.97;3.70;;;21.20;99.90;;;;;;5034861;28;20222;-43
2022/07/19 03:34:30;;;;;;;6.63;3.40;;;21.20;99.90;;;;;;5034862;28;20661;-43
2022/07/19 03:36:56;;;;;;;6.60;3.10;;;21.20;99.90;;;;;;5034851;28;20174;-44
2022/07/19 03:39:21;;;;;;;7.03;3.70;;;21.30;99.90;;;;;;5034809;28;20171;-44
2022/07/19 03:41:47;;;;;;;5.90;3.40;;;21.30;99.90;;;;;;5034632;28;20202;-45
2022/07/19 03:44:13;;;;;;;5.93;3.47;;;21.40;99.90;;;;;;5034890;28;20526;-46
2022/07/19 03:46:39;;;;;;;8.45;3.75;;;21.40;99.90;;;;;;5034611;28;20210;-43
2022/07/19 03:49:04;;;;;;;9.88;3.35;;;21.30;99.90;;;;;;5034501;28;20511;-46
2022/07/19 03:51:30;;;;;;;7.38;3.47;;;21.40;99.90;;;;;;5034475;28;20171;-43
2022/07/19 03:53:55;;;;;;;9.50;4.55;;;21.40;99.90;;;;;;5034482;28;20163;-45
2022/07/19 03:56:21;;;;;;;7.78;3.47;;;21.40;99.90;;;;;;5034424;28;20172;-43
2022/07/19 03:58:48;;;;;;;9.20;3.88;;;21.40;99.90;;;;;;5034626;28;20175;-43
2022/07/19 04:01:14;;;;;;;4.68;3.20;;;21.40;99.90;;;;;;5034589;28;20537;-44
2022/07/19 04:03:40;;;;;;;4.80;3.40;;;21.10;99.90;;;;;;5034783;28;20215;-43
2022/07/19 04:06:07;;;;;;;10.30;3.65;;;21.40;99.90;;;;;;5033967;28;20203;-45
2022/07/19 04:08:33;;;;;;;7.90;3.80;;;21.40;99.90;;;;;;5034173;28;20644;-43
2022/07/19 04:11:00;;;;;;;9.13;4.65;;;21.40;99.90;;;;;;5034105;28;20164;-43
2022/07/19 04:13:25;;;;;;;7.85;3.22;;;21.50;99.90;;;;;;5034278;28;20168;-43
2022/07/19 04:15:51;;;;;;;7.15;3.47;;;21.60;99.90;;;;;;5034304;28;20629;-43
2022/07/19 04:18:17;;;;;;;5.75;3.72;;;21.50;99.90;;;;;;5034183;28;20171;-43
2022/07/19 04:20:43;;;;;;;11.65;3.90;;;21.60;99.90;;;;;;5034313;28;20155;-43
2022/07/19 04:23:09;;;;;;;8.35;3.65;;;21.50;99.90;;;;;;5033900;28;20545;-43
2022/07/19 04:25:34;;;;;;;7.43;3.35;;;21.60;99.90;;;;;;5033856;28;20171;-43
2022/07/19 04:28:01;;;;;;;6.30;3.33;;;21.60;99.90;;;;;;5033914;28;20171;-43
2022/07/19 04:30:27;;;;;;;4.20;3.35;;;21.60;99.90;;;;;;5033997;28;20171;-43
2022/07/19 04:32:53;;;;;;;5.75;3.22;;;21.60;99.90;;;;;;5032997;28;20246;-43
2022/07/19 04:35:19;;;;;;;6.47;3.40;;;21.70;99.90;;;;;;5033681;28;20631;-43
2022/07/19 04:37:45;;;;;;;4.22;3.40;;;21.60;99.90;;;;;;5033728;28;20171;-42
2022/07/19 04:40:10;;;;;;;6.07;3.60;;;21.80;99.90;;;;;;5034159;28;20176;-43
2022/07/19 04:42:36;;;;;;;10.32;4.00;;;21.80;99.90;;;;;;5033721;28;20567;-43
2022/07/19 04:45:03;;;;;;;5.60;3.72;;;21.90;99.90;;;;;;5033445;28;20534;-43
2022/07/19 04:47:28;;;;;;;7.68;4.05;;;21.90;99.90;;;;;;5033402;28;20582;-43
2022/07/19 04:49:54;;;;;;;5.35;3.22;;;21.90;99.90;;;;;;5033400;28;20163;-42
2022/07/19 04:52:19;;;;;;;8.38;3.53;;;22.10;99.90;;;;;;5033330;28;20167;-42
2022/07/19 04:54:45;;;;;;;10.40;3.30;;;22.30;99.90;;;;;;5033331;28;20226;-43
2022/07/19 04:57:11;;;;;;;9.18;3.75;;;22.40;99.90;;;;;;5033553;28;20155;-42
2022/07/19 04:59:36;;;;;;;8.90;3.38;;;22.40;99.90;;;;;;5033184;28;20194;-42
2022/07/19 05:02:02;;;;;;;5.60;3.53;;;22.50;99.90;;;;;;5033207;28;20234;-43
2022/07/19 05:04:28;;;;;;;9.13;3.72;;;22.60;99.90;;;;;;5032962;28;20171;-42
2022/07/19 05:06:56;;;;;;;13.07;3.95;;;22.60;99.90;;;;;;5032864;28;20219;-42
2022/07/19 05:09:23;;;;;;;9.52;3.35;;;22.60;99.90;;;;;;5033254;28;20210;-43
2022/07/19 05:11:49;;;;;;;6.80;3.45;;;22.70;99.90;;;;;;5033245;28;20168;-42
2022/07/19 05:14:15;;;;;;;7.00;3.70;;;22.80;99.90;;;;;;5032938;28;20178;-42
2022/07/19 05:16:40;;;;;;;15.73;3.53;;;22.90;99.90;;;;;;5033256;28;20194;-42
2022/07/19 05:19:06;;;;;;;9.73;3.53;;;22.90;99.90;;;;;;5033141;28;20316;-43
2022/07/19 05:21:32;;;;;;;10.57;3.47;;;23.00;99.90;;;;;;5032895;28;20171;-43
2022/07/19 05:23:58;;;;;;;15.50;4.07;;;23.10;99.90;;;;;;5032807;28;20202;-42
2022/07/19 05:26:23;;;;;;;12.70;3.95;;;23.10;99.90;;;;;;5032695;28;20202;-43
2022/07/19 05:28:49;;;;;;;12.13;4.00;;;23.20;99.90;;;;;;5031339;28;20202;-42
2022/07/19 05:31:14;;;;;;;10.57;3.83;;;23.20;99.90;;;;;;5032579;28;20170;-42
2022/07/19 05:33:40;;;;;;;8.15;3.90;;;23.20;99.90;;;;;;5032928;28;20509;-43
2022/07/19 05:36:06;;;;;;;7.80;3.53;;;23.30;99.90;;;;;;5032729;28;20167;-42
2022/07/19 05:38:34;;;;;;;9.75;3.45;;;23.40;99.90;;;;;;5032481;28;20566;-42
2022/07/19 05:41:00;;;;;;;12.05;3.25;;;23.60;99.90;;;;;;5032416;28;20591;-42
2022/07/19 05:43:26;;;;;;;9.80;3.72;;;23.60;99.90;;;;;;5031615;28;20242;-42
2022/07/19 05:45:51;;;;;;;11.20;3.95;;;23.70;99.90;;;;;;5031393;28;20255;-44
2022/07/19 05:48:17;;;;;;;8.63;3.63;;;23.70;99.90;;;;;;5032164;28;20579;-43
2022/07/19 05:50:43;;;;;;;13.32;4.15;;;23.70;99.90;;;;;;5032586;28;20199;-43
2022/07/19 05:53:08;;;;;;;10.35;3.92;;;23.80;99.90;;;;;;5032276;28;20217;-43
2022/07/19 05:55:34;;;;;;;10.63;3.65;;;23.80;99.90;;;;;;5032132;28;20197;-42
2022/07/19 05:57:59;;;;;;;6.43;3.55;;;23.90;99.90;;;;;;5032162;28;20163;-42
2022/07/19 06:00:25;;;;;;;8.25;3.45;;;24.00;99.90;;;;;;5032174;28;20204;-43
2022/07/19 06:02:51;;;;;;;9.98;3.60;;;24.00;99.90;;;;;;5031994;28;20673;-43
2022/07/19 06:05:16;;;;;;;14.00;3.90;;;24.10;99.90;;;;;;5031734;28;20214;-43
2022/07/19 06:07:42;;;;;;;7.35;3.60;;;24.20;99.90;;;;;;5031849;28;20215;-43
2022/07/19 06:10:08;;;;;;;10.30;3.60;;;24.20;99.90;;;;;;5031787;28;20174;-43
2022/07/19 06:12:34;;;;;;;7.57;3.40;;;24.40;99.90;;;;;;5032231;28;20210;-43
2022/07/19 06:14:59;;;;;;;6.30;2.97;;;24.30;99.90;;;;;;5031966;28;20175;-43
2022/07/19 06:17:25;;;;;;;9.32;3.13;;;24.30;99.90;;;;;;5032020;28;20254;-43
2022/07/19 06:19:50;;;;;;;9.40;3.33;;;24.50;99.90;;;;;;5031619;28;20225;-42
2022/07/19 06:22:16;;;;;;;6.65;3.28;;;24.40;99.90;;;;;;5031627;28;20250;-43
2022/07/19 06:24:42;;;;;;;12.85;3.20;;;24.50;99.90;;;;;;5032121;28;20250;-42
2022/07/19 06:27:07;;;;;;;3.88;2.83;;;24.50;99.90;;;;;;5031909;28;20250;-43
2022/07/19 06:29:33;;;;;;;9.65;3.00;;;24.70;99.90;;;;;;5031830;28;20542;-41
2022/07/19 06:31:58;;;;;;;6.68;2.90;;;24.80;99.90;;;;;;5031838;28;20199;-42
2022/07/19 06:34:24;;;;;;;9.80;3.03;;;24.80;99.90;;;;;;5031779;28;20225;-43
2022/07/19 06:36:49;;;;;;;15.82;3.40;;;25.00;99.90;;;;;;5031490;28;20171;-43
2022/07/19 06:39:15;;;;;;;12.55;3.78;;;25.00;99.90;;;;;;5031678;28;20229;-43
2022/07/19 06:41:40;;;;;;;9.93;3.28;;;25.10;99.90;;;;;;5031918;28;20187;-44
2022/07/19 06:44:06;;;;;;;10.40;3.45;;;25.10;99.90;;;;;;5031661;28;20592;-43
2022/07/19 06:46:32;;;;;;;7.82;2.90;;;25.20;99.90;;;;;;5031255;28;20587;-43
2022/07/19 06:48:57;;;;;;;8.88;3.35;;;25.40;99.90;;;;;;5031569;28;20179;-43
2022/07/19 06:51:23;;;;;;;12.38;3.38;;;25.50;99.90;;;;;;5031126;28;20167;-43
2022/07/19 06:53:49;;;;;;;6.63;3.00;;;25.60;99.90;;;;;;5031401;28;20171;-44
2022/07/19 06:56:14;;;;;;;9.85;3.33;;;25.60;99.90;;;;;;5033091;28;20167;-43
2022/07/19 06:58:40;;;;;;;11.57;3.50;;;25.80;99.90;;;;;;5035847;28;20181;-43
2022/07/19 07:01:05;;;;;;;14.35;3.17;;;25.90;99.90;;;;;;5035111;28;20170;-44
2022/07/19 07:03:31;;;;;;;7.22;2.97;;;26.00;99.90;;;;;;5035176;28;20699;-43
2022/07/19 07:05:56;;;;;;;11.32;3.47;;;26.00;99.90;;;;;;5035363;28;20207;-43
2022/07/19 07:08:22;;;;;;;10.30;3.40;;;26.20;99.90;;;;;;5035299;28;20557;-44
2022/07/19 07:10:48;;;;;;;15.80;3.95;;;26.40;99.90;;;;;;5035309;28;20221;-45
2022/07/19 07:13:13;;;;;;;8.07;3.42;;;26.50;99.90;;;;;;5035194;28;20651;-45
2022/07/19 07:15:42;;;;;;;11.07;3.65;;;26.60;99.90;;;;;;5035716;28;20618;-42
2022/07/19 07:18:08;;;;;;;6.65;3.50;;;26.70;99.90;;;;;;5035340;28;20233;-44
2022/07/19 07:20:34;;;;;;;10.45;3.50;;;26.90;99.90;;;;;;5035007;28;20159;-43
2022/07/19 07:23:01;;;;;;;11.23;3.30;;;26.90;99.90;;;;;;5034846;28;20211;-47
2022/07/19 07:25:26;;;;;;;9.05;3.03;;;26.90;99.90;;;;;;5034944;28;20588;-45
2022/07/19 07:27:52;;;;;;;13.40;3.88;;;27.10;99.90;;;;;;5034976;28;20188;-47
2022/07/19 07:30:17;;;;;;;5.88;2.97;;;27.10;99.90;;;;;;5034942;28;20171;-43
2022/07/19 07:32:43;;;;;;;5.88;2.90;;;27.30;99.90;;;;;;5034545;28;20178;-43
2022/07/19 07:35:09;;;;;;;5.30;2.72;;;27.30;99.90;;;;;;5035167;28;20174;-44
2022/07/19 07:37:34;;;;;;;7.47;3.15;;;27.50;99.90;;;;;;5035052;28;20171;-44
2022/07/19 07:40:00;;;;;;;10.35;3.58;;;27.60;99.90;;;;;;5034785;28;20603;-43
2022/07/19 07:42:26;;;;;;;11.10;3.22;;;27.70;99.90;;;;;;5034242;28;20206;-43
2022/07/19 07:44:52;;;;;;;7.28;3.15;;;27.90;99.90;;;;;;5034267;28;20177;-43
2022/07/19 07:47:18;;;;;;;13.30;3.05;;;28.00;99.90;;;;;;5034663;28;20167;-43
2022/07/19 07:49:43;;;;;;;11.00;3.20;;;28.00;99.90;;;;;;5034304;28;20174;-43
2022/07/19 07:52:09;;;;;;;9.95;3.25;;;28.20;99.90;;;;;;5034701;28;20171;-44
2022/07/19 07:54:35;;;;;;;10.57;3.30;;;28.40;99.90;;;;;;5034373;28;20167;-44
2022/07/19 07:57:01;;;;;;;9.27;3.75;;;28.50;99.90;;;;;;5033973;28;20193;-46
2022/07/19 07:59:26;;;;;;;13.18;2.95;;;28.70;99.90;;;;;;5034119;28;20181;-45
2022/07/19 08:01:52;;;;;;;7.53;3.47;;;28.80;99.90;;;;;;5034253;28;20703;-43
2022/07/19 08:04:17;;;;;;;16.80;3.30;;;28.90;99.90;;;;;;5034175;28;20171;-43
2022/07/19 08:06:43;;;;;;;10.07;3.40;;;29.00;99.50;;;;;;5033877;28;20211;-44
2022/07/19 08:09:09;;;;;;;11.93;2.80;;;29.20;99.90;;;;;;5033301;28;20174;-43
2022/07/19 08:11:34;;;;;;;10.48;3.47;;;29.30;99.90;;;;;;5034265;28;20628;-43
2022/07/19 08:14:01;;;;;;;10.10;3.35;;;29.40;98.20;;;;;;5034697;28;20824;-43
2022/07/19 08:16:26;;;;;;;6.00;3.15;;;29.50;97.80;;;;;;5034561;28;20536;-43
2022/07/19 08:18:52;;;;;;;7.07;2.92;;;29.60;97.20;;;;;;5034067;28;20174;-43
2022/07/19 08:21:17;;;;;;;10.27;3.17;;;29.60;96.10;;;;;;5033518;28;20242;-44
2022/07/19 08:23:43;;;;;;;7.75;3.25;;;29.80;96.00;;;;;;5034220;28;20317;-43
2022/07/19 08:26:09;;;;;;;13.38;3.50;;;29.90;96.90;;;;;;5033821;28;20163;-43
2022/07/19 08:28:35;;;;;;;15.07;3.25;;;29.90;94.70;;;;;;5033367;28;20687;-44
2022/07/19 08:31:00;;;;;;;17.25;4.97;;;29.90;94.60;;;;;;5033797;28;20170;-44
2022/07/19 08:33:26;;;;;;;12.70;3.95;;;30.20;95.50;;;;;;5033767;28;20187;-43
2022/07/19 08:35:52;;;;;;;7.88;2.78;;;30.40;95.60;;;;;;5033628;28;20162;-44
2022/07/19 08:38:17;;;;;;;8.45;3.20;;;30.50;93.80;;;;;;5033472;28;20529;-43
2022/07/19 08:40:43;;;;;;;11.32;2.92;;;30.50;93.00;;;;;;5033715;28;20163;-43
2022/07/19 08:43:10;;;;;;;16.10;3.80;;;30.70;93.50;;;;;;5033687;28;20234;-43
2022/07/19 08:45:37;;;;;;;4.25;3.13;;;30.90;92.10;;;;;;5033888;28;20171;-42
2022/07/19 08:48:06;;;;;;;9.32;3.20;;;30.90;91.30;;;;;;5033393;28;20265;-44
2022/07/19 08:50:32;;;;;;;11.18;3.45;;;31.00;91.10;;;;;;5033117;28;20167;-44
2022/07/19 08:52:59;;;;;;;11.45;3.13;;;31.00;90.20;;;;;;5033129;28;20178;-44
2022/07/19 08:55:25;;;;;;;6.95;2.95;;;31.10;91.30;;;;;;5033121;28;20166;-45
2022/07/19 08:57:57;;;;;;;6.28;2.85;;;31.20;89.70;;;;;;5031873;28;20189;-44
2022/07/19 09:00:27;;;;;;;7.20;2.83;;;31.20;88.70;;;;;;5033220;28;20162;-43
2022/07/19 09:03:05;;;;;;;8.27;2.65;;;31.40;88.70;;;;;;5032576;28;20207;-43
2022/07/19 09:05:33;;;;;;;9.55;3.08;;;31.40;87.70;;;;;;5032191;28;20237;-43
2022/07/19 09:08:09;;;;;;;9.70;2.88;;;31.60;86.50;;;;;;5032970;28;20224;-44
2022/07/19 09:10:38;;;;;;;9.93;3.28;;;31.70;85.90;;;;;;5033109;28;20173;-44
2022/07/19 09:13:15;;;;;;;7.35;3.08;;;31.60;84.40;;;;;;5031288;28;20201;-45
2022/07/19 09:15:45;;;;;;;14.52;3.20;;;31.80;84.90;;;;;;5032780;28;20254;-50
2022/07/19 09:18:17;;;;;;;14.02;3.95;;;31.80;82.90;;;;;;5033028;28;20527;-43
2022/07/19 09:20:43;;;;;;;13.13;3.50;;;32.00;84.10;;;;;;5032863;28;20625;-45
2022/07/19 09:23:09;;;;;;;5.30;2.80;;;31.90;81.20;;;;;;5032640;28;20683;-46
2022/07/19 09:25:40;;;;;;;12.32;3.17;;;32.10;83.10;;;;;;5032600;28;20182;-45
2022/07/19 09:28:07;;;;;;;7.20;2.70;;;32.30;82.10;;;;;;5032626;28;20221;-46
2022/07/19 09:30:40;;;;;;;6.75;2.97;;;32.30;82.70;;;;;;5032585;28;20178;-45
2022/07/19 09:33:17;;;;;;;3.75;2.50;;;32.50;82.50;;;;;;5032717;28;20178;-45
2022/07/19 09:35:52;;;;;;;6.30;2.58;;;32.60;82.00;;;;;;5032638;28;20652;-45
2022/07/19 09:38:33;;;;;;;8.55;3.50;;;32.80;82.50;;;;;;5031878;28;20677;-44
2022/07/19 09:41:17;;;;;;;10.73;2.88;;;32.80;79.40;;;;;;5032238;28;20167;-44
2022/07/19 09:43:51;;;;;;;6.40;2.72;;;33.00;79.30;;;;;;5032327;28;20210;-44
2022/07/19 09:46:31;;;;;;;6.82;2.67;;;33.00;79.10;;;;;;5032248;28;20534;-44
2022/07/19 09:49:14;;;;;;;8.48;3.03;;;33.10;77.00;;;;;;5032230;28;20175;-45
2022/07/19 09:51:46;;;;;;;8.45;3.00;;;33.30;75.90;;;;;;5032421;28;20173;-43
2022/07/19 09:54:21;;;;;;;8.40;3.35;;;33.30;75.80;;;;;;5032188;28;20659;-44
2022/07/19 09:56:49;;;;;;;6.85;3.05;;;33.30;73.60;;;;;;5032000;28;20173;-44
2022/07/19 09:59:16;;;;;;;10.02;2.60;;;33.40;71.00;;;;;;5031795;28;20516;-44
2022/07/19 10:01:43;;;;;;;9.35;2.95;;;33.60;72.90;;;;;;5031846;28;20202;-45
2022/07/19 10:04:12;;;;;;;8.65;2.67;;;33.70;72.00;;;;;;5031821;28;20225;-44
2022/07/19 10:06:39;;;;;;;8.57;3.35;;;33.80;71.90;;;;;;5031564;28;20206;-43
2022/07/19 10:09:06;;;;;;;7.63;2.83;;;33.90;68.60;;;;;;5031394;28;20167;-42
2022/07/19 10:11:32;;;;;;;9.25;2.83;;;33.90;68.80;;;;;;5031997;28;20173;-44
2022/07/19 10:13:58;;;;;;;12.88;3.47;;;34.00;67.80;;;;;;5032027;28;20507;-44
2022/07/19 10:16:42;;;;;;;8.77;2.88;;;34.10;66.50;;;;;;5031659;28;20170;-43
2022/07/19 10:19:19;;;;;;;6.82;2.95;;;34.20;66.80;;;;;;5031312;28;20665;-46
2022/07/19 10:21:46;;;;;;;6.15;2.60;;;33.40;64.00;;;;;;5031659;28;20170;-44
2022/07/19 10:24:12;;;;;;;6.38;2.65;;;34.10;60.80;;;;;;5031947;28;20646;-43
2022/07/19 10:26:39;;;;;;;6.93;2.83;;;34.30;64.10;;;;;;5031546;28;20249;-44
2022/07/19 10:29:14;;;;;;;6.55;3.05;;;34.50;62.50;;;;;;5031558;28;20205;-44
2022/07/19 10:31:41;;;;;;;7.22;3.00;;;34.60;62.20;;;;;;5036393;28;20166;-45
2022/07/19 10:34:09;;;;;;;4.28;2.70;;;34.60;61.60;;;;;;5038274;28;20592;-44
2022/07/19 10:36:39;;;;;;;9.60;2.90;;;34.70;60.30;;;;;;5038162;28;20174;-43
2022/07/19 10:39:31;;;;;;;5.53;2.75;;;34.90;60.50;;;;;;5040634;28;20205;-43
2022/07/19 10:42:10;;;;;;;6.35;2.92;;;34.80;57.90;;;;;;5048415;28;20244;-43
2022/07/19 10:44:55;;;;;;;4.40;2.95;;;34.80;56.40;;;;;;5048739;28;20198;-43
2022/07/19 10:47:22;;;;;;;6.00;2.85;;;34.80;56.60;;;;;;5048835;28;20513;-52
2022/07/19 10:49:49;;;;;;;5.90;2.60;;;34.90;56.40;;;;;;5048904;28;20185;-52
2022/07/19 10:52:27;;;;;;;8.77;2.58;;;35.10;56.80;;;;;;5046912;28;20163;-52
2022/07/19 10:55:18;;;;;;;3.42;2.25;;;35.20;54.90;;;;;;5057995;28;20638;-46
2022/07/19 10:58:03;;;;;;;6.65;3.28;;;35.30;54.10;;;;;;5057196;28;20635;-46
2022/07/19 11:00:30;;;;;;;6.28;2.70;;;35.30;54.20;;;;;;5058104;28;20173;-49
2022/07/19 11:03:21;;;;;;;10.68;2.85;;;35.40;53.50;;;;;;5057619;28;20581;-48
2022/07/19 11:05:58;;;;;;;5.15;2.60;;;35.60;53.90;;;;;;5058122;28;20174;-48
2022/07/19 11:08:41;;;;;;;9.75;2.92;;;35.60;53.70;;;;;;5058142;28;20166;-48
2022/07/19 11:11:09;;;;;;;7.93;2.92;;;35.30;52.90;;;;;;5058041;28;20212;-48
2022/07/19 11:13:36;;;;;;;6.60;2.50;;;35.50;54.40;;;;;;5058055;28;20170;-44
2022/07/19 11:16:04;;;;;;;6.70;2.58;;;35.60;55.20;;;;;;5057993;28;20174;-44
2022/07/19 11:18:31;;;;;;;4.65;2.47;;;35.60;52.10;;;;;;5057925;28;20162;-43
2022/07/19 11:21:01;;;;;;;6.40;2.55;;;35.70;52.60;;;;;;5058543;28;20627;-45
2022/07/19 11:23:32;;;;;;;14.20;3.10;;;35.70;53.80;;;;;;5058509;28;20739;-44
2022/07/19 11:26:17;;;;;;;9.63;2.70;;;35.70;54.00;;;;;;5057993;28;20190;-44
2022/07/19 11:28:44;;;;;;;7.95;2.70;;;36.00;54.20;;;;;;5058281;28;20658;-43
2022/07/19 11:31:17;;;;;;;11.23;3.00;;;35.90;52.50;;;;;;5058133;28;20533;-45
2022/07/19 11:33:44;;;;;;;6.65;2.70;;;36.30;53.20;;;;;;5057296;28;20162;-44
2022/07/19 11:36:11;;;;;;;5.32;2.28;;;36.30;52.20;;;;;;5058112;28;20162;-44
2022/07/19 11:38:45;;;;;;;4.43;2.55;;;36.10;51.40;;;;;;5057739;28;20158;-44
2022/07/19 11:41:30;;;;;;;5.95;2.58;;;35.90;49.20;;;;;;5056557;28;20169;-44
2022/07/19 11:43:55;;;;;;;10.55;2.38;;;36.00;48.20;;;;;;5054236;28;20247;-44
2022/07/19 11:46:23;;;;;;;6.50;2.85;;;36.10;50.00;;;;;;5054601;28;20587;-45
2022/07/19 11:48:54;;;;;;;5.15;2.70;;;36.10;50.40;;;;;;5054482;28;20170;-45
2022/07/19 11:51:20;;;;;;;6.47;2.60;;;36.10;51.00;;;;;;5054420;28;20166;-45
2022/07/19 11:53:49;;;;;;;11.38;2.65;;;36.10;50.00;;;;;;5054591;28;20600;-44
2022/07/19 11:56:23;;;;;;;13.13;3.13;;;36.20;50.60;;;;;;5053825;28;20565;-53
2022/07/19 11:59:08;;;;;;;7.45;3.25;;;36.20;49.70;;;;;;5054072;28;20177;-44
2022/07/19 12:01:36;;;;;;;7.15;2.70;;;36.50;49.10;;;;;;5054290;28;20186;-51
2022/07/19 12:04:11;;;;;;;7.60;2.65;;;36.50;49.90;;;;;;5053674;28;20686;-45
2022/07/19 12:06:54;;;;;;;5.45;2.70;;;36.60;49.70;;;;;;5053173;28;20264;-47
2022/07/19 12:09:28;;;;;;;7.20;2.58;;;36.70;50.20;;;;;;5053583;28;20165;-46
2022/07/19 12:11:57;;;;;;;8.27;3.10;;;36.40;48.90;;;;;;5053251;28;20193;-46
2022/07/19 12:14:24;;;;;;;8.30;3.10;;;36.60;48.50;;;;;;5053704;28;20165;-46
2022/07/19 12:17:11;;;;;;;7.38;3.03;;;36.70;48.90;;;;;;5053673;28;20181;-47
2022/07/19 12:19:46;;;;;;;5.25;3.30;;;36.70;48.10;;;;;;5054969;28;20193;-44
2022/07/19 12:22:34;;;;;;;4.32;2.97;;;36.80;47.50;;;;;;5052811;28;20239;-44
2022/07/19 12:25:07;;;;;;;6.78;3.13;;;36.90;47.70;;;;;;5054160;28;20627;-44
2022/07/19 12:27:33;;;;;;;13.32;3.70;;;36.90;48.60;;;;;;5053614;28;20209;-49
2022/07/19 12:30:18;;;;;;;3.92;2.88;;;36.90;48.40;;;;;;5053951;28;20719;-42
2022/07/19 12:32:47;;;;;;;9.75;3.45;;;37.00;49.00;;;;;;5054113;28;20162;-44
2022/07/19 12:35:21;;;;;;;5.88;3.58;;;37.00;48.00;;;;;;5053163;28;20710;-44
2022/07/19 12:37:52;;;;;;;7.90;3.03;;;36.90;47.40;;;;;;5053964;28;20166;-44
2022/07/19 12:40:26;;;;;;;10.50;2.83;;;37.10;47.80;;;;;;5052259;28;20206;-43
2022/07/19 12:43:03;;;;;;;10.88;3.58;;;37.30;48.40;;;;;;5054011;28;20270;-46
2022/07/19 12:45:39;;;;;;;8.65;2.95;;;37.20;46.70;;;;;;5053884;28;20165;-47